Airfield :
LOGIN :

Register | Disclaimer

   EN    FR    IT 

 










Legend :    VFR   Marginal VFR   IFR   Intensive IFR   Very Intensive IFR
Visi :
Ceiling :
>= 8 km
>= 3000ft
5 to 8 km
1000 to 3000 ft
1500m to 5 km
500 to 1000 ft
800 to 1500m
200 to 500 ft
< 800m
< 200 ft
Symbols :   Thunderstorms  Fog  Heavy snow  Heavy precipitations  Wind > 20 kt
SIGMETs :     Misc.  Thunderstorms  Icing  Turbulence  Mountain Waves  Volcanic Ashes







- Airport Elevation : 433 ft
- IATA code : CCF
- Download approach charts


LFMK - Carcassonne

CURRENT METAR :
  • 160130Z AUTO 19003KT CAVOK 16/14 Q1016

EXPIRED METARs :
  • 160100Z AUTO VRB01KT CAVOK 16/14 Q1016
  • 160030Z AUTO 00000KT CAVOK 17/13 Q1016
  • 160000Z AUTO 22002KT CAVOK 17/14 Q1017
  • 152330Z AUTO VRB01KT CAVOK 18/14 Q1017
  • 152300Z AUTO VRB03KT CAVOK 18/14 Q1017

TAF TAF LFMK
Valid from the 15 at 15:00 until the 16 at 15:00 UTC


151400Z 1515/1615 28012KT CAVOK
BECMG 1518/1521 VRB02KT
TEMPO 1608/1613 08012KT
No reported NOTAMs for that airfield.



MET'MAP, your aeronautical weather chart ! - Copyright ORBIFLY December 2007 - Disclaimer

ORBIFLY MET'MAP TEAM :

Programming & Development : Alexandra Zaïnal
Concept & Development : Baudouin d'Aumeries
Co-Development & Prog : Marc-Olivier Méhu
Technical & hardware support : Manuel Goepfert

Contact : metmap@orbifly.com




SOURCES & CREDITS :

   NOAA